sensor_id;sensor_type;location;lat;lon;timestamp;P1;durP1;ratioP1;P2;durP2;ratioP2
4698;SDS011;33708;49.466;11.176;2022-09-09T00:04:40;21.40;;;3.10;;
4698;SDS011;33708;49.466;11.176;2022-09-09T00:07:25;10.13;;;2.43;;
4698;SDS011;33708;49.466;11.176;2022-09-09T00:10:16;8.40;;;2.80;;
4698;SDS011;33708;49.466;11.176;2022-09-09T00:12:54;9.93;;;2.70;;
4698;SDS011;33708;49.466;11.176;2022-09-09T00:18:44;6.20;;;2.20;;
4698;SDS011;33708;49.466;11.176;2022-09-09T00:21:32;9.07;;;2.77;;
4698;SDS011;33708;49.466;11.176;2022-09-09T00:24:04;9.37;;;2.37;;
4698;SDS011;33708;49.466;11.176;2022-09-09T00:26:47;10.07;;;2.30;;
4698;SDS011;33708;49.466;11.176;2022-09-09T00:31:50;18.17;;;2.60;;
4698;SDS011;33708;49.466;11.176;2022-09-09T00:34:23;10.47;;;2.50;;
4698;SDS011;33708;49.466;11.176;2022-09-09T00:36:52;7.20;;;2.00;;
4698;SDS011;33708;49.466;11.176;2022-09-09T00:39:25;7.17;;;2.20;;
4698;SDS011;33708;49.466;11.176;2022-09-09T00:58:09;8.53;;;2.60;;
4698;SDS011;33708;49.466;11.176;2022-09-09T01:00:41;8.10;;;2.40;;
4698;SDS011;33708;49.466;11.176;2022-09-09T01:03:37;9.73;;;2.50;;
4698;SDS011;33708;49.466;11.176;2022-09-09T01:06:16;14.53;;;2.87;;
4698;SDS011;33708;49.466;11.176;2022-09-09T01:09:00;13.00;;;3.07;;
4698;SDS011;33708;49.466;11.176;2022-09-09T01:17:03;16.70;;;3.33;;
4698;SDS011;33708;49.466;11.176;2022-09-09T01:28:16;8.63;;;2.70;;
4698;SDS011;33708;49.466;11.176;2022-09-09T01:30:47;14.77;;;3.20;;
4698;SDS011;33708;49.466;11.176;2022-09-09T01:33:14;10.07;;;2.63;;
4698;SDS011;33708;49.466;11.176;2022-09-09T01:35:55;10.87;;;2.37;;
4698;SDS011;33708;49.466;11.176;2022-09-09T01:38:25;12.50;;;2.50;;
4698;SDS011;33708;49.466;11.176;2022-09-09T01:40:54;10.00;;;2.50;;
4698;SDS011;33708;49.466;11.176;2022-09-09T01:43:20;10.47;;;2.57;;
4698;SDS011;33708;49.466;11.176;2022-09-09T01:45:48;7.43;;;2.50;;
4698;SDS011;33708;49.466;11.176;2022-09-09T01:48:16;8.23;;;2.23;;
4698;SDS011;33708;49.466;11.176;2022-09-09T01:50:43;11.57;;;2.30;;
4698;SDS011;33708;49.466;11.176;2022-09-09T01:53:09;7.83;;;2.50;;
4698;SDS011;33708;49.466;11.176;2022-09-09T01:55:37;9.50;;;2.33;;
4698;SDS011;33708;49.466;11.176;2022-09-09T02:00:36;12.90;;;2.30;;
4698;SDS011;33708;49.466;11.176;2022-09-09T02:03:09;8.67;;;2.57;;
4698;SDS011;33708;49.466;11.176;2022-09-09T02:05:38;6.07;;;2.30;;
4698;SDS011;33708;49.466;11.176;2022-09-09T02:08:16;13.13;;;2.20;;
4698;SDS011;33708;49.466;11.176;2022-09-09T02:13:21;6.77;;;2.27;;
4698;SDS011;33708;49.466;11.176;2022-09-09T02:21:31;8.50;;;2.07;;
4698;SDS011;33708;49.466;11.176;2022-09-09T02:24:00;8.17;;;2.10;;
4698;SDS011;33708;49.466;11.176;2022-09-09T02:26:29;8.80;;;2.60;;
4698;SDS011;33708;49.466;11.176;2022-09-09T02:31:41;9.37;;;2.80;;
4698;SDS011;33708;49.466;11.176;2022-09-09T02:34:10;10.43;;;2.60;;
4698;SDS011;33708;49.466;11.176;2022-09-09T02:36:37;8.63;;;2.30;;
4698;SDS011;33708;49.466;11.176;2022-09-09T02:39:05;10.83;;;2.40;;
4698;SDS011;33708;49.466;11.176;2022-09-09T02:41:36;14.40;;;2.73;;
4698;SDS011;33708;49.466;11.176;2022-09-09T02:44:05;6.07;;;1.93;;
4698;SDS011;33708;49.466;11.176;2022-09-09T02:49:20;15.73;;;2.03;;
4698;SDS011;33708;49.466;11.176;2022-09-09T02:52:06;11.63;;;2.43;;
4698;SDS011;33708;49.466;11.176;2022-09-09T02:54:42;9.53;;;2.20;;
4698;SDS011;33708;49.466;11.176;2022-09-09T02:59:39;12.70;;;2.03;;
4698;SDS011;33708;49.466;11.176;2022-09-09T03:02:05;8.97;;;2.30;;
4698;SDS011;33708;49.466;11.176;2022-09-09T03:04:31;6.40;;;1.97;;
4698;SDS011;33708;49.466;11.176;2022-09-09T03:06:57;8.73;;;2.23;;
4698;SDS011;33708;49.466;11.176;2022-09-09T03:09:23;9.03;;;2.50;;
4698;SDS011;33708;49.466;11.176;2022-09-09T03:11:49;12.33;;;2.17;;
4698;SDS011;33708;49.466;11.176;2022-09-09T03:14:15;10.67;;;1.80;;
4698;SDS011;33708;49.466;11.176;2022-09-09T03:16:41;13.30;;;2.40;;
4698;SDS011;33708;49.466;11.176;2022-09-09T03:19:08;14.17;;;2.43;;
4698;SDS011;33708;49.466;11.176;2022-09-09T03:21:34;11.97;;;2.20;;
4698;SDS011;33708;49.466;11.176;2022-09-09T03:24:00;9.10;;;2.50;;
4698;SDS011;33708;49.466;11.176;2022-09-09T03:26:28;9.90;;;2.50;;
4698;SDS011;33708;49.466;11.176;2022-09-09T03:28:55;8.47;;;2.53;;
4698;SDS011;33708;49.466;11.176;2022-09-09T03:31:21;8.67;;;2.30;;
4698;SDS011;33708;49.466;11.176;2022-09-09T03:33:46;9.90;;;2.63;;
4698;SDS011;33708;49.466;11.176;2022-09-09T03:36:12;10.90;;;2.30;;
4698;SDS011;33708;49.466;11.176;2022-09-09T03:38:39;15.40;;;2.43;;
4698;SDS011;33708;49.466;11.176;2022-09-09T03:41:05;8.47;;;2.90;;
4698;SDS011;33708;49.466;11.176;2022-09-09T03:43:30;7.20;;;2.20;;
4698;SDS011;33708;49.466;11.176;2022-09-09T03:45:56;15.23;;;2.40;;
4698;SDS011;33708;49.466;11.176;2022-09-09T03:48:22;8.80;;;2.30;;
4698;SDS011;33708;49.466;11.176;2022-09-09T03:50:49;8.30;;;2.23;;
4698;SDS011;33708;49.466;11.176;2022-09-09T03:53:16;8.20;;;2.93;;
4698;SDS011;33708;49.466;11.176;2022-09-09T03:55:45;13.40;;;2.60;;
4698;SDS011;33708;49.466;11.176;2022-09-09T03:58:13;7.50;;;2.00;;
4698;SDS011;33708;49.466;11.176;2022-09-09T04:00:39;6.37;;;2.10;;
4698;SDS011;33708;49.466;11.176;2022-09-09T04:03:07;7.07;;;2.00;;
4698;SDS011;33708;49.466;11.176;2022-09-09T04:05:34;8.40;;;1.93;;
4698;SDS011;33708;49.466;11.176;2022-09-09T04:08:00;12.83;;;2.30;;
4698;SDS011;33708;49.466;11.176;2022-09-09T04:10:25;10.67;;;2.93;;
4698;SDS011;33708;49.466;11.176;2022-09-09T04:12:51;12.63;;;2.60;;
4698;SDS011;33708;49.466;11.176;2022-09-09T04:15:17;10.13;;;2.80;;
4698;SDS011;33708;49.466;11.176;2022-09-09T04:17:43;7.27;;;2.10;;
4698;SDS011;33708;49.466;11.176;2022-09-09T04:20:09;7.00;;;2.10;;
4698;SDS011;33708;49.466;11.176;2022-09-09T04:22:37;18.13;;;2.87;;
4698;SDS011;33708;49.466;11.176;2022-09-09T04:25:04;9.47;;;2.30;;
4698;SDS011;33708;49.466;11.176;2022-09-09T04:27:30;5.80;;;1.67;;
4698;SDS011;33708;49.466;11.176;2022-09-09T04:29:57;10.00;;;2.90;;
4698;SDS011;33708;49.466;11.176;2022-09-09T04:32:22;10.13;;;2.50;;
4698;SDS011;33708;49.466;11.176;2022-09-09T04:34:51;7.43;;;2.20;;
4698;SDS011;33708;49.466;11.176;2022-09-09T04:37:17;14.00;;;2.37;;
4698;SDS011;33708;49.466;11.176;2022-09-09T04:39:42;5.10;;;1.80;;
4698;SDS011;33708;49.466;11.176;2022-09-09T04:42:08;10.20;;;2.10;;
4698;SDS011;33708;49.466;11.176;2022-09-09T04:44:34;10.53;;;2.20;;
4698;SDS011;33708;49.466;11.176;2022-09-09T04:46:59;6.37;;;2.50;;
4698;SDS011;33708;49.466;11.176;2022-09-09T04:49:25;9.97;;;2.87;;
4698;SDS011;33708;49.466;11.176;2022-09-09T04:51:50;7.30;;;2.10;;
4698;SDS011;33708;49.466;11.176;2022-09-09T04:54:16;9.40;;;2.00;;
4698;SDS011;33708;49.466;11.176;2022-09-09T04:56:42;9.20;;;2.20;;
4698;SDS011;33708;49.466;11.176;2022-09-09T04:59:08;12.07;;;2.37;;
4698;SDS011;33708;49.466;11.176;2022-09-09T05:01:35;10.57;;;2.33;;
4698;SDS011;33708;49.466;11.176;2022-09-09T05:04:01;7.70;;;2.37;;
4698;SDS011;33708;49.466;11.176;2022-09-09T05:06:27;14.60;;;2.50;;
4698;SDS011;33708;49.466;11.176;2022-09-09T05:08:56;9.87;;;2.20;;
4698;SDS011;33708;49.466;11.176;2022-09-09T05:11:26;15.57;;;2.63;;
4698;SDS011;33708;49.466;11.176;2022-09-09T05:13:53;7.97;;;2.10;;
4698;SDS011;33708;49.466;11.176;2022-09-09T05:16:19;13.30;;;2.20;;
4698;SDS011;33708;49.466;11.176;2022-09-09T05:18:46;7.83;;;2.37;;
4698;SDS011;33708;49.466;11.176;2022-09-09T05:21:12;9.03;;;2.30;;
4698;SDS011;33708;49.466;11.176;2022-09-09T05:23:39;9.00;;;2.57;;
4698;SDS011;33708;49.466;11.176;2022-09-09T05:26:06;16.77;;;2.57;;
4698;SDS011;33708;49.466;11.176;2022-09-09T05:28:34;10.53;;;2.23;;
4698;SDS011;33708;49.466;11.176;2022-09-09T05:31:01;10.07;;;2.47;;
4698;SDS011;33708;49.466;11.176;2022-09-09T05:33:30;6.90;;;2.00;;
4698;SDS011;33708;49.466;11.176;2022-09-09T05:36:00;7.53;;;2.23;;
4698;SDS011;33708;49.466;11.176;2022-09-09T05:38:26;7.70;;;2.20;;
4698;SDS011;33708;49.466;11.176;2022-09-09T05:40:53;8.10;;;2.63;;
4698;SDS011;33708;49.466;11.176;2022-09-09T05:43:21;10.50;;;2.60;;
4698;SDS011;33708;49.466;11.176;2022-09-09T05:45:48;15.80;;;2.67;;
4698;SDS011;33708;49.466;11.176;2022-09-09T05:48:27;13.93;;;2.53;;
4698;SDS011;33708;49.466;11.176;2022-09-09T05:50:53;7.67;;;2.40;;
4698;SDS011;33708;49.466;11.176;2022-09-09T05:53:19;7.80;;;2.17;;
4698;SDS011;33708;49.466;11.176;2022-09-09T05:55:45;9.80;;;2.53;;
4698;SDS011;33708;49.466;11.176;2022-09-09T05:58:11;6.47;;;2.43;;
4698;SDS011;33708;49.466;11.176;2022-09-09T06:00:36;9.70;;;2.27;;
4698;SDS011;33708;49.466;11.176;2022-09-09T06:03:02;10.50;;;2.23;;
4698;SDS011;33708;49.466;11.176;2022-09-09T06:05:29;7.90;;;2.37;;
4698;SDS011;33708;49.466;11.176;2022-09-09T06:07:55;15.63;;;2.83;;
4698;SDS011;33708;49.466;11.176;2022-09-09T06:10:21;15.90;;;2.83;;
4698;SDS011;33708;49.466;11.176;2022-09-09T06:12:46;8.23;;;2.20;;
4698;SDS011;33708;49.466;11.176;2022-09-09T06:15:12;15.33;;;2.63;;
4698;SDS011;33708;49.466;11.176;2022-09-09T06:17:38;9.27;;;2.30;;
4698;SDS011;33708;49.466;11.176;2022-09-09T06:20:04;8.13;;;2.37;;
4698;SDS011;33708;49.466;11.176;2022-09-09T06:22:30;11.60;;;2.33;;
4698;SDS011;33708;49.466;11.176;2022-09-09T06:24:56;8.53;;;2.23;;
4698;SDS011;33708;49.466;11.176;2022-09-09T06:27:21;11.43;;;2.33;;
4698;SDS011;33708;49.466;11.176;2022-09-09T06:29:47;6.47;;;2.00;;
4698;SDS011;33708;49.466;11.176;2022-09-09T06:32:13;7.40;;;2.10;;
4698;SDS011;33708;49.466;11.176;2022-09-09T06:34:39;6.90;;;1.80;;
4698;SDS011;33708;49.466;11.176;2022-09-09T06:37:04;8.63;;;2.40;;
4698;SDS011;33708;49.466;11.176;2022-09-09T06:39:31;10.20;;;2.20;;
4698;SDS011;33708;49.466;11.176;2022-09-09T06:41:57;6.50;;;1.93;;
4698;SDS011;33708;49.466;11.176;2022-09-09T06:44:23;12.97;;;2.47;;
4698;SDS011;33708;49.466;11.176;2022-09-09T06:46:51;9.47;;;1.90;;
4698;SDS011;33708;49.466;11.176;2022-09-09T06:49:17;10.40;;;1.90;;
4698;SDS011;33708;49.466;11.176;2022-09-09T06:51:43;8.27;;;1.40;;
4698;SDS011;33708;49.466;11.176;2022-09-09T06:54:09;10.23;;;1.90;;
4698;SDS011;33708;49.466;11.176;2022-09-09T06:56:39;6.60;;;1.60;;
4698;SDS011;33708;49.466;11.176;2022-09-09T06:59:07;6.20;;;1.53;;
4698;SDS011;33708;49.466;11.176;2022-09-09T07:01:34;9.30;;;2.00;;
4698;SDS011;33708;49.466;11.176;2022-09-09T07:04:02;5.63;;;1.80;;
4698;SDS011;33708;49.466;11.176;2022-09-09T07:06:33;6.00;;;1.83;;
4698;SDS011;33708;49.466;11.176;2022-09-09T07:09:01;14.90;;;1.87;;
4698;SDS011;33708;49.466;11.176;2022-09-09T07:11:32;9.17;;;1.83;;
4698;SDS011;33708;49.466;11.176;2022-09-09T07:14:00;6.53;;;1.60;;
4698;SDS011;33708;49.466;11.176;2022-09-09T07:16:26;7.10;;;1.80;;
4698;SDS011;33708;49.466;11.176;2022-09-09T07:18:52;6.57;;;1.60;;
4698;SDS011;33708;49.466;11.176;2022-09-09T07:21:22;7.67;;;1.63;;
4698;SDS011;33708;49.466;11.176;2022-09-09T07:23:51;8.87;;;1.47;;
4698;SDS011;33708;49.466;11.176;2022-09-09T07:26:18;8.17;;;1.40;;
4698;SDS011;33708;49.466;11.176;2022-09-09T07:28:45;9.00;;;1.60;;
4698;SDS011;33708;49.466;11.176;2022-09-09T07:33:42;6.70;;;1.50;;
4698;SDS011;33708;49.466;11.176;2022-09-09T07:38:48;7.53;;;1.63;;
4698;SDS011;33708;49.466;11.176;2022-09-09T07:41:37;10.33;;;2.13;;
4698;SDS011;33708;49.466;11.176;2022-09-09T07:44:38;7.83;;;1.30;;
4698;SDS011;33708;49.466;11.176;2022-09-09T07:47:00;9.80;;;1.70;;
4698;SDS011;33708;49.466;11.176;2022-09-09T07:49:26;6.73;;;1.53;;
4698;SDS011;33708;49.466;11.176;2022-09-09T07:51:51;7.27;;;1.80;;
4698;SDS011;33708;49.466;11.176;2022-09-09T07:54:18;10.83;;;1.80;;
4698;SDS011;33708;49.466;11.176;2022-09-09T07:56:45;8.60;;;1.90;;
4698;SDS011;33708;49.466;11.176;2022-09-09T07:59:12;8.93;;;2.00;;
4698;SDS011;33708;49.466;11.176;2022-09-09T08:01:48;8.10;;;1.63;;
4698;SDS011;33708;49.466;11.176;2022-09-09T08:04:19;11.90;;;1.83;;
4698;SDS011;33708;49.466;11.176;2022-09-09T08:06:53;5.80;;;1.60;;
4698;SDS011;33708;49.466;11.176;2022-09-09T08:09:23;10.50;;;2.00;;
4698;SDS011;33708;49.466;11.176;2022-09-09T08:11:51;6.20;;;1.33;;
4698;SDS011;33708;49.466;11.176;2022-09-09T08:14:17;7.80;;;1.57;;
4698;SDS011;33708;49.466;11.176;2022-09-09T08:16:44;8.97;;;1.57;;
4698;SDS011;33708;49.466;11.176;2022-09-09T08:19:11;10.33;;;1.90;;
4698;SDS011;33708;49.466;11.176;2022-09-09T08:21:38;8.77;;;1.50;;
4698;SDS011;33708;49.466;11.176;2022-09-09T08:24:05;7.33;;;1.60;;
4698;SDS011;33708;49.466;11.176;2022-09-09T08:26:32;7.63;;;1.60;;
4698;SDS011;33708;49.466;11.176;2022-09-09T08:29:00;9.80;;;1.40;;
4698;SDS011;33708;49.466;11.176;2022-09-09T08:31:28;12.73;;;1.40;;
4698;SDS011;33708;49.466;11.176;2022-09-09T08:34:04;9.63;;;1.70;;
4698;SDS011;33708;49.466;11.176;2022-09-09T08:36:32;11.77;;;1.97;;
4698;SDS011;33708;49.466;11.176;2022-09-09T08:39:01;7.40;;;1.73;;
4698;SDS011;33708;49.466;11.176;2022-09-09T08:41:30;8.30;;;1.47;;
4698;SDS011;33708;49.466;11.176;2022-09-09T08:52:48;8.83;;;1.60;;
4698;SDS011;33708;49.466;11.176;2022-09-09T08:55:37;6.40;;;1.50;;
4698;SDS011;33708;49.466;11.176;2022-09-09T08:58:14;6.90;;;1.43;;
4698;SDS011;33708;49.466;11.176;2022-09-09T09:06:06;7.73;;;1.40;;
4698;SDS011;33708;49.466;11.176;2022-09-09T09:11:35;12.80;;;2.10;;
4698;SDS011;33708;49.466;11.176;2022-09-09T09:16:39;7.10;;;1.53;;
4698;SDS011;33708;49.466;11.176;2022-09-09T09:19:14;8.70;;;1.70;;
4698;SDS011;33708;49.466;11.176;2022-09-09T09:26:47;10.40;;;1.80;;
4698;SDS011;33708;49.466;11.176;2022-09-09T09:29:14;6.23;;;1.50;;
4698;SDS011;33708;49.466;11.176;2022-09-09T09:31:43;6.67;;;1.20;;
4698;SDS011;33708;49.466;11.176;2022-09-09T09:34:16;7.90;;;1.90;;
4698;SDS011;33708;49.466;11.176;2022-09-09T09:36:43;6.50;;;1.13;;
4698;SDS011;33708;49.466;11.176;2022-09-09T09:39:26;8.97;;;1.30;;
4698;SDS011;33708;49.466;11.176;2022-09-09T09:42:07;7.20;;;1.43;;
4698;SDS011;33708;49.466;11.176;2022-09-09T09:44:38;10.40;;;1.40;;
4698;SDS011;33708;49.466;11.176;2022-09-09T09:47:26;8.10;;;1.13;;
4698;SDS011;33708;49.466;11.176;2022-09-09T09:49:55;7.23;;;1.40;;
4698;SDS011;33708;49.466;11.176;2022-09-09T09:52:27;10.00;;;1.60;;
4698;SDS011;33708;49.466;11.176;2022-09-09T09:54:55;5.40;;;1.03;;
4698;SDS011;33708;49.466;11.176;2022-09-09T09:57:31;11.07;;;1.60;;
4698;SDS011;33708;49.466;11.176;2022-09-09T10:00:03;7.33;;;1.00;;
4698;SDS011;33708;49.466;11.176;2022-09-09T10:02:40;7.97;;;1.40;;
4698;SDS011;33708;49.466;11.176;2022-09-09T10:05:21;7.47;;;1.00;;
4698;SDS011;33708;49.466;11.176;2022-09-09T10:08:09;6.40;;;1.23;;
4698;SDS011;33708;49.466;11.176;2022-09-09T10:13:26;7.50;;;1.33;;
4698;SDS011;33708;49.466;11.176;2022-09-09T10:18:58;9.87;;;1.10;;
4698;SDS011;33708;49.466;11.176;2022-09-09T10:26:56;6.90;;;1.13;;
4698;SDS011;33708;49.466;11.176;2022-09-09T10:29:47;6.90;;;1.10;;
4698;SDS011;33708;49.466;11.176;2022-09-09T10:40:41;6.87;;;0.90;;
4698;SDS011;33708;49.466;11.176;2022-09-09T10:44:17;5.33;;;0.87;;
4698;SDS011;33708;49.466;11.176;2022-09-09T10:46:26;6.80;;;1.10;;
4698;SDS011;33708;49.466;11.176;2022-09-09T10:49:10;7.47;;;1.47;;
4698;SDS011;33708;49.466;11.176;2022-09-09T10:57:39;5.80;;;1.00;;
4698;SDS011;33708;49.466;11.176;2022-09-09T11:00:23;10.33;;;1.73;;
4698;SDS011;33708;49.466;11.176;2022-09-09T11:03:04;7.50;;;1.20;;
4698;SDS011;33708;49.466;11.176;2022-09-09T11:08:19;6.97;;;1.20;;
4698;SDS011;33708;49.466;11.176;2022-09-09T11:10:52;6.43;;;1.30;;
4698;SDS011;33708;49.466;11.176;2022-09-09T11:16:05;8.90;;;1.10;;
4698;SDS011;33708;49.466;11.176;2022-09-09T11:18:46;7.17;;;0.90;;
4698;SDS011;33708;49.466;11.176;2022-09-09T11:21:34;7.33;;;1.40;;
4698;SDS011;33708;49.466;11.176;2022-09-09T11:27:05;7.67;;;1.30;;
4698;SDS011;33708;49.466;11.176;2022-09-09T11:29:44;6.47;;;0.90;;
4698;SDS011;33708;49.466;11.176;2022-09-09T11:40:36;5.37;;;1.00;;
4698;SDS011;33708;49.466;11.176;2022-09-09T11:43:14;7.17;;;1.27;;
4698;SDS011;33708;49.466;11.176;2022-09-09T11:45:50;6.53;;;1.40;;
4698;SDS011;33708;49.466;11.176;2022-09-09T11:48:26;6.87;;;1.20;;
4698;SDS011;33708;49.466;11.176;2022-09-09T11:50:57;7.83;;;1.80;;
4698;SDS011;33708;49.466;11.176;2022-09-09T11:53:25;6.97;;;1.40;;
4698;SDS011;33708;49.466;11.176;2022-09-09T11:56:02;7.27;;;1.30;;
4698;SDS011;33708;49.466;11.176;2022-09-09T11:58:36;6.73;;;1.20;;
4698;SDS011;33708;49.466;11.176;2022-09-09T12:01:13;6.10;;;1.10;;
4698;SDS011;33708;49.466;11.176;2022-09-09T12:08:46;7.87;;;1.20;;
4698;SDS011;33708;49.466;11.176;2022-09-09T12:11:26;11.93;;;1.33;;
4698;SDS011;33708;49.466;11.176;2022-09-09T12:13:53;7.57;;;1.00;;
4698;SDS011;33708;49.466;11.176;2022-09-09T12:16:27;7.53;;;1.30;;
4698;SDS011;33708;49.466;11.176;2022-09-09T12:19:13;7.73;;;1.13;;
4698;SDS011;33708;49.466;11.176;2022-09-09T12:21:53;6.50;;;1.47;;
4698;SDS011;33708;49.466;11.176;2022-09-09T12:27:19;5.87;;;1.20;;
4698;SDS011;33708;49.466;11.176;2022-09-09T12:32:34;8.93;;;1.10;;
4698;SDS011;33708;49.466;11.176;2022-09-09T12:35:02;7.20;;;1.00;;
4698;SDS011;33708;49.466;11.176;2022-09-09T12:40:01;5.83;;;1.00;;
4698;SDS011;33708;49.466;11.176;2022-09-09T12:42:31;6.80;;;1.20;;
4698;SDS011;33708;49.466;11.176;2022-09-09T12:45:01;5.27;;;0.90;;
4698;SDS011;33708;49.466;11.176;2022-09-09T12:47:38;5.20;;;1.03;;
4698;SDS011;33708;49.466;11.176;2022-09-09T12:50:27;5.77;;;0.80;;
4698;SDS011;33708;49.466;11.176;2022-09-09T12:52:54;5.47;;;0.80;;
4698;SDS011;33708;49.466;11.176;2022-09-09T12:55:30;6.10;;;1.03;;
4698;SDS011;33708;49.466;11.176;2022-09-09T12:57:58;7.03;;;1.27;;
4698;SDS011;33708;49.466;11.176;2022-09-09T13:00:26;6.47;;;1.00;;
4698;SDS011;33708;49.466;11.176;2022-09-09T13:02:56;7.33;;;1.00;;
4698;SDS011;33708;49.466;11.176;2022-09-09T13:08:02;8.80;;;1.43;;
4698;SDS011;33708;49.466;11.176;2022-09-09T13:10:46;9.30;;;1.20;;
4698;SDS011;33708;49.466;11.176;2022-09-09T13:13:23;6.03;;;1.17;;
4698;SDS011;33708;49.466;11.176;2022-09-09T13:15:54;6.73;;;1.20;;
4698;SDS011;33708;49.466;11.176;2022-09-09T13:18:24;8.43;;;1.37;;
4698;SDS011;33708;49.466;11.176;2022-09-09T13:20:55;7.40;;;1.30;;
4698;SDS011;33708;49.466;11.176;2022-09-09T13:23:22;10.43;;;1.40;;
4698;SDS011;33708;49.466;11.176;2022-09-09T13:25:53;40.20;;;1.37;;
4698;SDS011;33708;49.466;11.176;2022-09-09T13:28:20;11.33;;;1.03;;
4698;SDS011;33708;49.466;11.176;2022-09-09T13:30:55;7.27;;;1.10;;
4698;SDS011;33708;49.466;11.176;2022-09-09T13:33:37;11.67;;;1.50;;
4698;SDS011;33708;49.466;11.176;2022-09-09T13:36:05;7.13;;;1.03;;
4698;SDS011;33708;49.466;11.176;2022-09-09T13:39:01;8.20;;;0.90;;
4698;SDS011;33708;49.466;11.176;2022-09-09T13:41:35;8.43;;;1.17;;
4698;SDS011;33708;49.466;11.176;2022-09-09T13:44:14;8.07;;;1.27;;
4698;SDS011;33708;49.466;11.176;2022-09-09T13:46:45;8.70;;;0.90;;
4698;SDS011;33708;49.466;11.176;2022-09-09T13:52:22;10.60;;;1.20;;
4698;SDS011;33708;49.466;11.176;2022-09-09T13:54:34;7.37;;;1.10;;
4698;SDS011;33708;49.466;11.176;2022-09-09T13:57:00;9.43;;;1.27;;
4698;SDS011;33708;49.466;11.176;2022-09-09T13:59:26;8.63;;;1.17;;
4698;SDS011;33708;49.466;11.176;2022-09-09T14:01:52;7.33;;;1.30;;
4698;SDS011;33708;49.466;11.176;2022-09-09T14:04:19;6.70;;;0.80;;
4698;SDS011;33708;49.466;11.176;2022-09-09T14:06:46;7.33;;;1.00;;
4698;SDS011;33708;49.466;11.176;2022-09-09T14:09:14;8.63;;;1.37;;
4698;SDS011;33708;49.466;11.176;2022-09-09T14:11:41;6.97;;;1.00;;
4698;SDS011;33708;49.466;11.176;2022-09-09T14:14:08;13.03;;;1.07;;
4698;SDS011;33708;49.466;11.176;2022-09-09T14:16:33;7.77;;;0.93;;
4698;SDS011;33708;49.466;11.176;2022-09-09T14:18:59;7.70;;;1.27;;
4698;SDS011;33708;49.466;11.176;2022-09-09T14:21:26;7.67;;;1.03;;
4698;SDS011;33708;49.466;11.176;2022-09-09T14:23:52;6.73;;;0.93;;
4698;SDS011;33708;49.466;11.176;2022-09-09T14:26:19;9.33;;;1.10;;
4698;SDS011;33708;49.466;11.176;2022-09-09T14:28:46;7.90;;;1.00;;
4698;SDS011;33708;49.466;11.176;2022-09-09T14:31:12;12.77;;;1.10;;
4698;SDS011;33708;49.466;11.176;2022-09-09T14:33:38;8.80;;;0.87;;
4698;SDS011;33708;49.466;11.176;2022-09-09T14:36:04;7.50;;;0.90;;
4698;SDS011;33708;49.466;11.176;2022-09-09T14:38:34;7.17;;;1.10;;
4698;SDS011;33708;49.466;11.176;2022-09-09T14:41:04;7.47;;;1.57;;
4698;SDS011;33708;49.466;11.176;2022-09-09T14:43:30;7.30;;;1.10;;
4698;SDS011;33708;49.466;11.176;2022-09-09T14:45:57;9.00;;;1.20;;
4698;SDS011;33708;49.466;11.176;2022-09-09T14:48:30;11.50;;;1.20;;
4698;SDS011;33708;49.466;11.176;2022-09-09T14:50:56;7.47;;;1.40;;
4698;SDS011;33708;49.466;11.176;2022-09-09T14:53:21;11.30;;;1.33;;
4698;SDS011;33708;49.466;11.176;2022-09-09T14:55:47;8.43;;;1.53;;
4698;SDS011;33708;49.466;11.176;2022-09-09T14:58:13;22.90;;;1.50;;
4698;SDS011;33708;49.466;11.176;2022-09-09T15:00:38;21.83;;;1.90;;
4698;SDS011;33708;49.466;11.176;2022-09-09T15:03:04;11.50;;;1.30;;
4698;SDS011;33708;49.466;11.176;2022-09-09T15:05:30;18.10;;;1.50;;
4698;SDS011;33708;49.466;11.176;2022-09-09T15:07:56;5.80;;;0.90;;
4698;SDS011;33708;49.466;11.176;2022-09-09T15:10:23;7.10;;;1.10;;
4698;SDS011;33708;49.466;11.176;2022-09-09T15:12:51;7.73;;;1.13;;
4698;SDS011;33708;49.466;11.176;2022-09-09T15:15:17;10.53;;;1.20;;
4698;SDS011;33708;49.466;11.176;2022-09-09T15:17:42;8.60;;;1.50;;
4698;SDS011;33708;49.466;11.176;2022-09-09T15:20:08;7.67;;;1.13;;
4698;SDS011;33708;49.466;11.176;2022-09-09T15:22:34;9.40;;;1.60;;
4698;SDS011;33708;49.466;11.176;2022-09-09T15:25:01;6.87;;;1.10;;
4698;SDS011;33708;49.466;11.176;2022-09-09T15:27:27;6.30;;;1.17;;
4698;SDS011;33708;49.466;11.176;2022-09-09T15:29:53;10.73;;;1.57;;
4698;SDS011;33708;49.466;11.176;2022-09-09T15:32:19;12.00;;;1.30;;
4698;SDS011;33708;49.466;11.176;2022-09-09T15:34:45;9.27;;;1.67;;
4698;SDS011;33708;49.466;11.176;2022-09-09T15:37:11;8.17;;;1.27;;
4698;SDS011;33708;49.466;11.176;2022-09-09T15:39:38;16.13;;;1.70;;
4698;SDS011;33708;49.466;11.176;2022-09-09T15:42:04;10.43;;;1.17;;
4698;SDS011;33708;49.466;11.176;2022-09-09T15:44:29;9.80;;;1.43;;
4698;SDS011;33708;49.466;11.176;2022-09-09T15:47:03;12.30;;;1.47;;
4698;SDS011;33708;49.466;11.176;2022-09-09T15:49:29;9.27;;;1.20;;
4698;SDS011;33708;49.466;11.176;2022-09-09T15:51:55;7.37;;;1.17;;
4698;SDS011;33708;49.466;11.176;2022-09-09T15:54:28;8.03;;;1.20;;
4698;SDS011;33708;49.466;11.176;2022-09-09T15:56:58;7.90;;;1.70;;
4698;SDS011;33708;49.466;11.176;2022-09-09T15:59:25;6.27;;;1.10;;
4698;SDS011;33708;49.466;11.176;2022-09-09T16:01:55;6.23;;;1.00;;
4698;SDS011;33708;49.466;11.176;2022-09-09T16:04:22;6.90;;;1.07;;
4698;SDS011;33708;49.466;11.176;2022-09-09T16:06:50;10.60;;;1.17;;
4698;SDS011;33708;49.466;11.176;2022-09-09T16:09:27;6.93;;;1.23;;
4698;SDS011;33708;49.466;11.176;2022-09-09T16:11:55;6.70;;;1.00;;
4698;SDS011;33708;49.466;11.176;2022-09-09T16:14:23;6.97;;;0.83;;
4698;SDS011;33708;49.466;11.176;2022-09-09T16:16:50;6.93;;;1.30;;
4698;SDS011;33708;49.466;11.176;2022-09-09T16:19:16;5.40;;;0.70;;
4698;SDS011;33708;49.466;11.176;2022-09-09T16:21:42;7.87;;;1.30;;
4698;SDS011;33708;49.466;11.176;2022-09-09T16:24:10;5.70;;;0.87;;
4698;SDS011;33708;49.466;11.176;2022-09-09T16:26:39;9.33;;;0.60;;
4698;SDS011;33708;49.466;11.176;2022-09-09T16:29:08;7.43;;;0.80;;
4698;SDS011;33708;49.466;11.176;2022-09-09T16:31:34;5.53;;;0.67;;
4698;SDS011;33708;49.466;11.176;2022-09-09T16:34:00;8.23;;;0.70;;
4698;SDS011;33708;49.466;11.176;2022-09-09T16:36:27;6.20;;;0.83;;
4698;SDS011;33708;49.466;11.176;2022-09-09T16:38:55;6.33;;;0.80;;
4698;SDS011;33708;49.466;11.176;2022-09-09T16:41:32;5.20;;;0.70;;
4698;SDS011;33708;49.466;11.176;2022-09-09T16:43:59;6.90;;;0.90;;
4698;SDS011;33708;49.466;11.176;2022-09-09T16:46:27;7.43;;;1.00;;
4698;SDS011;33708;49.466;11.176;2022-09-09T16:48:55;5.30;;;0.80;;
4698;SDS011;33708;49.466;11.176;2022-09-09T16:51:26;5.30;;;0.80;;
4698;SDS011;33708;49.466;11.176;2022-09-09T16:53:54;5.23;;;0.57;;
4698;SDS011;33708;49.466;11.176;2022-09-09T16:56:23;5.50;;;0.80;;
4698;SDS011;33708;49.466;11.176;2022-09-09T16:58:51;7.07;;;1.00;;
4698;SDS011;33708;49.466;11.176;2022-09-09T17:01:24;5.20;;;0.70;;
4698;SDS011;33708;49.466;11.176;2022-09-09T17:03:52;6.90;;;0.80;;
4698;SDS011;33708;49.466;11.176;2022-09-09T17:06:18;6.57;;;0.80;;
4698;SDS011;33708;49.466;11.176;2022-09-09T17:08:44;5.10;;;0.60;;
4698;SDS011;33708;49.466;11.176;2022-09-09T17:11:13;5.47;;;0.60;;
4698;SDS011;33708;49.466;11.176;2022-09-09T17:13:44;5.00;;;0.60;;
4698;SDS011;33708;49.466;11.176;2022-09-09T17:16:11;5.40;;;0.77;;
4698;SDS011;33708;49.466;11.176;2022-09-09T17:18:38;6.13;;;0.67;;
4698;SDS011;33708;49.466;11.176;2022-09-09T17:21:05;5.10;;;0.70;;
4698;SDS011;33708;49.466;11.176;2022-09-09T17:23:33;5.47;;;0.83;;
4698;SDS011;33708;49.466;11.176;2022-09-09T17:26:03;5.87;;;0.73;;
4698;SDS011;33708;49.466;11.176;2022-09-09T17:28:32;5.10;;;0.60;;